EWR weather

Newark Liberty International Airport
Newark, New Jersey, United States

Public forecast

Using degrees Fahrenheit for public forecast. Weather courtesy of forecast.io.

METAR (pilot weather report)

Retrieved 2017/09/22 00:51 UTC (49 minutes ago):

KEWR 220051Z 02012KT 10SM FEW045 BKN260 24/17 A3001 RMK AO2 SLP162 T02390167

TAF (pilot weather forecast)

Forecast is more than 12 hours old.

Retrieved 2017/09/21 00:34 UTC (1 day ago):

TAF KEWR 212332Z 2200/2306 36010KT P6SM SCT150 BKN250 FM221400 36014G20KT P6SM SCT040 BKN150 FM230000 36010KT P6SM SCT040 BKN150